createdAt,value
2022-10-21T00:00:40.489Z,6.15
2022-10-21T00:04:40.454Z,6.72
2022-10-21T00:08:40.581Z,7.3
2022-10-21T00:12:41.017Z,6.68
2022-10-21T00:16:40.467Z,7.47
2022-10-21T00:20:40.412Z,6.7
2022-10-21T00:24:40.652Z,6.32
2022-10-21T00:28:40.537Z,7.22
2022-10-21T00:32:40.817Z,7.32
2022-10-21T00:36:40.574Z,6.93
2022-10-21T00:40:40.506Z,7.45
2022-10-21T00:44:40.338Z,6.68
2022-10-21T00:48:40.430Z,8.15
2022-10-21T00:52:40.774Z,8.43
2022-10-21T00:56:40.541Z,8.35
2022-10-21T01:00:40.634Z,8.05
2022-10-21T01:04:39.640Z,8.75
2022-10-21T01:08:40.550Z,9.18
2022-10-21T01:12:40.577Z,9
2022-10-21T01:16:43.109Z,9.07
2022-10-21T01:20:40.535Z,9.5
2022-10-21T01:24:40.655Z,9.4
2022-10-21T01:28:40.517Z,10.02
2022-10-21T01:32:40.569Z,10.23
2022-10-21T01:36:40.602Z,8.88
2022-10-21T01:40:40.999Z,9.88
2022-10-21T01:44:40.506Z,10.88
2022-10-21T01:48:40.603Z,10.25
2022-10-21T01:52:40.796Z,10.27
2022-10-21T01:56:40.464Z,10.07
2022-10-21T02:00:40.491Z,10.43
2022-10-21T02:04:40.490Z,11.35
2022-10-21T02:08:40.542Z,12.7
2022-10-21T02:12:40.954Z,11.32
2022-10-21T02:16:40.653Z,12.05
2022-10-21T02:20:40.181Z,11.5
2022-10-21T02:24:40.528Z,11.8
2022-10-21T02:32:40.978Z,10.98
2022-10-21T02:36:39.277Z,9.88
2022-10-21T02:40:40.615Z,11.35
2022-10-21T02:44:40.659Z,10.32
2022-10-21T02:48:40.172Z,10.13
2022-10-21T02:52:41.139Z,11.27
2022-10-21T02:56:40.567Z,10.32
2022-10-21T03:00:40.526Z,10
2022-10-21T03:04:40.495Z,8.88
2022-10-21T03:08:40.562Z,8.77
2022-10-21T03:12:40.510Z,8.68
2022-10-21T03:16:40.481Z,8.7
2022-10-21T03:20:40.676Z,7.97
2022-10-21T03:24:40.401Z,6.95
2022-10-21T03:28:40.531Z,7.62
2022-10-21T03:32:40.773Z,6.82
2022-10-21T03:36:40.444Z,7.4
2022-10-21T03:40:40.704Z,6.37
2022-10-21T03:44:40.829Z,6.32
2022-10-21T03:48:40.420Z,6.28
2022-10-21T03:52:40.937Z,6.25
2022-10-21T03:56:40.626Z,5.75
2022-10-21T04:00:40.686Z,5.9
2022-10-21T04:04:40.453Z,5.82
2022-10-21T04:08:40.363Z,5.5
2022-10-21T04:12:40.799Z,6.07
2022-10-21T04:16:40.458Z,5.43
2022-10-21T04:20:40.465Z,6.12
2022-10-21T04:24:40.504Z,6.53
2022-10-21T04:28:40.375Z,5.28
2022-10-21T04:32:41.100Z,5.97
2022-10-21T04:36:40.575Z,6.12
2022-10-21T04:40:40.746Z,5.75
2022-10-21T04:44:40.443Z,5.62
2022-10-21T04:48:40.515Z,6.45
2022-10-21T04:52:40.829Z,6.03
2022-10-21T04:56:40.506Z,6.05
2022-10-21T05:00:40.809Z,6
2022-10-21T05:04:41.105Z,5.82
2022-10-21T05:08:40.650Z,6.47
2022-10-21T05:12:40.221Z,6.07
2022-10-21T05:16:40.573Z,6.07
2022-10-21T05:20:40.328Z,6.7
2022-10-21T05:24:40.312Z,5.85
2022-10-21T05:28:40.869Z,6.32
2022-10-21T05:32:41.180Z,6
2022-10-21T05:36:40.719Z,6.8
2022-10-21T05:40:40.682Z,6.07
2022-10-21T05:44:40.627Z,5.85
2022-10-21T05:48:41.136Z,7.15
2022-10-21T05:52:40.686Z,6.43
2022-10-21T05:56:40.633Z,6.47
2022-10-21T06:00:40.747Z,6.4
2022-10-21T06:04:40.315Z,5.37
2022-10-21T06:08:40.992Z,5.95
2022-10-21T06:12:41.107Z,6.22
2022-10-21T06:16:40.772Z,6.32
2022-10-21T06:20:40.775Z,5.75
2022-10-21T06:24:40.740Z,7.8
2022-10-21T06:28:40.535Z,5.6
2022-10-21T06:32:40.607Z,5.32
2022-10-21T06:36:40.676Z,6.15
2022-10-21T06:40:40.566Z,6.15
2022-10-21T06:44:40.666Z,4.95
2022-10-21T06:48:40.683Z,5.43
2022-10-21T06:52:40.612Z,5.47
2022-10-21T06:56:40.162Z,6.28
2022-10-21T07:00:40.534Z,5.93
2022-10-21T07:04:40.616Z,6.07
2022-10-21T07:08:53.856Z,5
2022-10-21T07:12:40.549Z,6.03
2022-10-21T07:16:40.163Z,6.47
2022-10-21T07:20:41.276Z,5.45
2022-10-21T07:24:40.501Z,5.65
2022-10-21T07:28:40.531Z,5.47
2022-10-21T07:32:40.690Z,5.6
2022-10-21T07:36:40.256Z,5.68
2022-10-21T07:40:40.623Z,5.4
2022-10-21T07:44:40.561Z,5.53
2022-10-21T07:48:40.299Z,5.57
2022-10-21T07:52:43.771Z,6.53
2022-10-21T07:56:40.833Z,4.85
2022-10-21T08:00:40.737Z,4.9
2022-10-21T08:04:40.855Z,4.62
2022-10-21T08:08:40.526Z,5.1
2022-10-21T08:12:40.986Z,5.15
2022-10-21T08:16:40.691Z,4.9
2022-10-21T08:20:40.453Z,4.62
2022-10-21T08:24:42.364Z,4.95
2022-10-21T08:28:40.499Z,5.65
2022-10-21T08:32:40.901Z,5.47
2022-10-21T08:36:40.464Z,5.68
2022-10-21T08:40:40.474Z,5.68
2022-10-21T08:44:40.495Z,4.9
2022-10-21T08:48:40.566Z,5.28
2022-10-21T08:52:40.506Z,5.65
2022-10-21T08:56:40.414Z,4.72
2022-10-21T09:00:41.198Z,4.95
2022-10-21T09:04:40.473Z,5.07
2022-10-21T09:08:40.691Z,5.07
2022-10-21T09:12:40.296Z,4.93
2022-10-21T09:16:39.377Z,4.68
2022-10-21T09:20:40.854Z,4.8
2022-10-21T09:24:40.808Z,4.75
2022-10-21T09:28:40.376Z,4.78
2022-10-21T09:32:41.128Z,5.05
2022-10-21T09:36:40.706Z,4.87
2022-10-21T09:40:40.324Z,4.35
2022-10-21T09:44:40.419Z,5.15
2022-10-21T09:48:53.973Z,4.95
2022-10-21T09:52:41.736Z,4.4
2022-10-21T09:56:40.361Z,4.22
2022-10-21T10:00:40.623Z,4.37
2022-10-21T10:04:40.953Z,3.92
2022-10-21T10:08:41.114Z,3.87
2022-10-21T10:12:40.874Z,3.65
2022-10-21T10:16:40.535Z,3.95
2022-10-21T10:20:40.510Z,3.95
2022-10-21T10:24:40.622Z,3.6
2022-10-21T10:32:40.877Z,3.72
2022-10-21T10:36:40.461Z,4.2
2022-10-21T10:40:40.576Z,3.92
2022-10-21T10:44:40.454Z,4.7
2022-10-21T10:48:40.444Z,4.18
2022-10-21T10:52:40.488Z,4.2
2022-10-21T10:56:40.721Z,4.47
2022-10-21T11:00:40.605Z,4.18
2022-10-21T11:04:40.474Z,3.37
2022-10-21T11:08:40.502Z,3.65
2022-10-21T11:12:40.534Z,3.9
2022-10-21T11:16:45.235Z,3.83
2022-10-21T11:20:40.537Z,3.97
2022-10-21T11:24:40.487Z,3.4
2022-10-21T11:28:40.539Z,4.03
2022-10-21T11:32:41.090Z,3.83
2022-10-21T11:36:40.508Z,4.2
2022-10-21T11:40:40.523Z,4.18
2022-10-21T11:44:40.591Z,3.4
2022-10-21T11:48:40.781Z,3.28
2022-10-21T11:52:40.821Z,3.53
2022-10-21T11:56:40.466Z,3.2
2022-10-21T12:00:40.552Z,3.97
2022-10-21T12:04:40.374Z,3.9
2022-10-21T12:08:43.832Z,3.05
2022-10-21T12:12:41.136Z,3.55
2022-10-21T12:16:40.735Z,2.7
2022-10-21T12:20:40.525Z,3.65
2022-10-21T12:24:40.502Z,3.6
2022-10-21T12:28:40.704Z,3.35
2022-10-21T12:32:40.555Z,3.58
2022-10-21T12:36:40.464Z,3.12
2022-10-21T12:40:40.521Z,3.25
2022-10-21T12:44:40.544Z,4.25
2022-10-21T12:48:40.527Z,3.53
2022-10-21T12:52:40.501Z,3.62
2022-10-21T12:56:40.364Z,4.07
2022-10-21T13:00:39.517Z,4.1
2022-10-21T13:04:40.691Z,3.92
2022-10-21T13:08:40.559Z,3.97
2022-10-21T13:12:40.985Z,4.55
2022-10-21T13:16:40.347Z,4
2022-10-21T13:20:40.537Z,4.35
2022-10-21T13:24:40.278Z,4.57
2022-10-21T13:28:40.460Z,4.75
2022-10-21T13:32:40.793Z,4.9
2022-10-21T13:36:40.528Z,4.25
2022-10-21T13:40:39.299Z,5.2
2022-10-21T13:44:40.540Z,4.75
2022-10-21T13:48:40.439Z,4.97
2022-10-21T13:52:40.001Z,4.97
2022-10-21T13:56:40.522Z,4.82
2022-10-21T14:00:40.496Z,5.85
2022-10-21T14:04:40.826Z,4.55
2022-10-21T14:08:40.667Z,5.6
2022-10-21T14:12:41.139Z,5.57
2022-10-21T14:16:40.529Z,6.18
2022-10-21T14:20:40.738Z,5.62
2022-10-21T14:24:40.769Z,5.93
2022-10-21T14:28:40.430Z,5.8
2022-10-21T14:32:41.092Z,6.45
2022-10-21T14:36:40.389Z,6.22
2022-10-21T14:40:40.711Z,7.1
2022-10-21T14:44:40.869Z,8.13
2022-10-21T14:48:40.537Z,9.38
2022-10-21T14:52:41.245Z,9.68
2022-10-21T14:56:40.491Z,10.68
2022-10-21T15:00:41.126Z,11
2022-10-21T15:04:40.696Z,12
2022-10-21T15:08:40.594Z,13.32
2022-10-21T15:12:41.299Z,13.52
2022-10-21T15:16:40.477Z,14.8
2022-10-21T15:20:40.847Z,13.77
2022-10-21T15:24:40.512Z,15.65
2022-10-21T15:28:40.562Z,15.73
2022-10-21T15:32:40.436Z,17.75
2022-10-21T15:36:40.440Z,18.25
2022-10-21T15:40:40.780Z,16.52
2022-10-21T15:44:40.515Z,16.17
2022-10-21T15:48:40.856Z,17.45
2022-10-21T15:52:40.425Z,17.8
2022-10-21T15:56:40.370Z,17.2
2022-10-21T16:00:41.143Z,17
2022-10-21T16:04:40.658Z,17.25
2022-10-21T16:08:40.526Z,15.52
2022-10-21T16:12:40.830Z,16.87
2022-10-21T16:16:40.516Z,17.62
2022-10-21T16:20:40.512Z,16.48
2022-10-21T16:24:40.698Z,17.8
2022-10-21T16:28:40.335Z,18.73
2022-10-21T16:32:39.800Z,18.25
2022-10-21T16:36:40.439Z,19.2
2022-10-21T16:40:40.558Z,16.6
2022-10-21T16:44:40.517Z,15.8
2022-10-21T16:48:40.453Z,17.1
2022-10-21T16:52:40.751Z,18.52
2022-10-21T16:56:40.600Z,20.2
2022-10-21T17:00:40.584Z,16.58
2022-10-21T17:04:40.531Z,17.15
2022-10-21T17:08:40.316Z,18.92
2022-10-21T17:12:40.507Z,18.75
2022-10-21T17:16:40.545Z,18.05
2022-10-21T17:20:40.654Z,17.83
2022-10-21T17:24:40.460Z,19.45
2022-10-21T17:28:40.613Z,19.25
2022-10-21T17:36:40.715Z,18.8
2022-10-21T17:40:40.599Z,18.55
2022-10-21T17:44:40.497Z,18.08
2022-10-21T17:48:40.541Z,19.08
2022-10-21T17:52:40.918Z,19.4
2022-10-21T17:56:40.676Z,17.45
2022-10-21T18:00:43.762Z,19.17
2022-10-21T18:04:40.111Z,19.08
2022-10-21T18:08:41.275Z,19.62
2022-10-21T18:12:41.552Z,18.55
2022-10-21T18:16:40.295Z,18.33
2022-10-21T18:20:40.745Z,17.9
2022-10-21T18:24:40.552Z,16.17
2022-10-21T18:28:40.470Z,15.57
2022-10-21T18:32:40.812Z,15.57
2022-10-21T18:36:40.905Z,15.98
2022-10-21T18:40:43.738Z,16.08
2022-10-21T18:44:40.621Z,14.9
2022-10-21T18:48:40.535Z,12.77
2022-10-21T18:52:40.551Z,14.13
2022-10-21T18:56:40.426Z,15.4
2022-10-21T19:00:40.538Z,15.32
2022-10-21T19:04:40.511Z,14.35
2022-10-21T19:08:41.301Z,14.55
2022-10-21T19:12:40.470Z,14.25
2022-10-21T19:16:40.424Z,12.93
2022-10-21T19:20:40.713Z,14.63
2022-10-21T19:24:40.592Z,14
2022-10-21T19:28:40.514Z,13.93
2022-10-21T19:32:41.560Z,13.32
2022-10-21T19:36:40.624Z,16.55
2022-10-21T19:40:40.513Z,13.82
2022-10-21T19:44:40.600Z,14.25
2022-10-21T19:48:40.429Z,14.77
2022-10-21T19:52:40.776Z,15.8
2022-10-21T19:56:40.382Z,15.65
2022-10-21T20:00:40.526Z,14.43
2022-10-21T20:04:40.656Z,15.65
2022-10-21T20:08:40.469Z,15.98
2022-10-21T20:12:41.437Z,15.3
2022-10-21T20:16:40.503Z,15.77
2022-10-21T20:20:40.507Z,17.42
2022-10-21T20:24:45.501Z,16.15
2022-10-21T20:28:40.322Z,16.67
2022-10-21T20:32:39.511Z,15.38
2022-10-21T20:36:40.478Z,17.3
2022-10-21T20:40:40.896Z,16.5
2022-10-21T20:44:40.538Z,16.92
2022-10-21T20:48:40.561Z,16.98
2022-10-21T20:52:40.455Z,16.27
2022-10-21T20:56:40.441Z,15.95
2022-10-21T21:00:43.533Z,17.12
2022-10-21T21:04:40.520Z,16.52
2022-10-21T21:08:48.798Z,14.95
2022-10-21T21:12:40.651Z,15.77
2022-10-21T21:16:40.397Z,16.05
2022-10-21T21:20:40.917Z,15.43
2022-10-21T21:24:39.510Z,14.75
2022-10-21T21:28:40.478Z,15.43
2022-10-21T21:32:40.677Z,17.12
2022-10-21T21:36:40.546Z,15.7
2022-10-21T21:40:40.310Z,15.18
2022-10-21T21:44:40.465Z,14.57
2022-10-21T21:48:43.191Z,15.32
2022-10-21T21:52:40.533Z,15.13
2022-10-21T21:56:40.474Z,15.05
2022-10-21T22:00:40.742Z,15.48
2022-10-21T22:04:40.492Z,15.45
2022-10-21T22:08:40.665Z,15.27
2022-10-21T22:12:41.274Z,14.98
2022-10-21T22:16:41.124Z,15.55
2022-10-21T22:20:40.555Z,15.65
2022-10-21T22:24:41.158Z,15.4
2022-10-21T22:28:40.439Z,15.07
2022-10-21T22:32:40.507Z,14.65
2022-10-21T22:36:40.955Z,15.7
2022-10-21T22:40:41.007Z,16.2
2022-10-21T22:44:40.445Z,16.45
2022-10-21T22:48:40.401Z,17.27
2022-10-21T22:52:40.230Z,16.75
2022-10-21T22:56:40.395Z,17.9
2022-10-21T23:00:40.454Z,17.02
2022-10-21T23:04:41.371Z,16.55
2022-10-21T23:08:40.572Z,18.65
2022-10-21T23:12:40.903Z,18.48
2022-10-21T23:16:40.502Z,18.27
2022-10-21T23:20:40.540Z,18.3
2022-10-21T23:24:40.526Z,18.2
2022-10-21T23:28:40.509Z,18.75
2022-10-21T23:32:40.417Z,18.4
2022-10-21T23:36:40.958Z,17.9
2022-10-21T23:40:40.496Z,18.05
2022-10-21T23:44:40.577Z,18.48
2022-10-21T23:48:39.312Z,18.4
2022-10-21T23:52:40.548Z,16.87
2022-10-21T23:56:40.571Z,18.2
